createdAt,value
2017-12-31T00:01:37.630Z,8.00
2017-12-31T00:04:05.285Z,9.80
2017-12-31T00:06:32.920Z,8.70
2017-12-31T00:09:00.501Z,8.18
2017-12-31T00:11:28.170Z,8.38
2017-12-31T00:13:55.746Z,8.57
2017-12-31T00:16:24.164Z,7.72
2017-12-31T00:18:51.728Z,9.10
2017-12-31T00:21:19.340Z,7.43
2017-12-31T00:23:47.011Z,6.93
2017-12-31T00:26:14.608Z,8.65
2017-12-31T00:28:42.164Z,8.48
2017-12-31T00:31:09.761Z,8.90
2017-12-31T00:33:38.210Z,9.07
2017-12-31T00:36:06.486Z,8.95
2017-12-31T00:38:35.059Z,9.18
2017-12-31T00:41:02.681Z,7.85
2017-12-31T00:43:30.261Z,9.30
2017-12-31T00:45:57.912Z,11.85
2017-12-31T00:48:25.465Z,10.25
2017-12-31T00:50:53.112Z,8.88
2017-12-31T00:53:20.700Z,9.43
2017-12-31T00:55:48.318Z,10.35
2017-12-31T00:58:15.878Z,9.48
2017-12-31T01:00:44.295Z,9.13
2017-12-31T01:03:11.865Z,8.25
2017-12-31T01:05:39.405Z,8.82
2017-12-31T01:08:07.774Z,9.30
2017-12-31T01:10:41.119Z,9.98
2017-12-31T01:13:09.533Z,9.40
2017-12-31T01:15:37.090Z,11.35
2017-12-31T01:18:05.388Z,9.40
2017-12-31T01:20:34.230Z,9.10
2017-12-31T01:23:01.798Z,9.60
2017-12-31T01:25:29.544Z,9.63
2017-12-31T01:27:57.168Z,10.60
2017-12-31T01:30:24.706Z,13.32
2017-12-31T01:32:52.349Z,11.18
2017-12-31T01:35:20.175Z,11.90
2017-12-31T01:37:47.818Z,9.80
2017-12-31T01:40:15.410Z,10.27
2017-12-31T01:42:43.792Z,9.68
2017-12-31T01:45:11.392Z,7.93
2017-12-31T01:47:39.019Z,10.88
2017-12-31T01:50:06.581Z,9.80
2017-12-31T01:52:34.151Z,10.25
2017-12-31T01:55:01.774Z,8.63
2017-12-31T01:57:29.330Z,8.85
2017-12-31T01:59:56.933Z,6.78
2017-12-31T02:02:25.684Z,7.95
2017-12-31T02:04:53.269Z,7.45
2017-12-31T02:07:20.846Z,5.60
2017-12-31T02:09:48.437Z,6.50
2017-12-31T02:12:16.795Z,8.07
2017-12-31T02:14:45.131Z,7.30
2017-12-31T02:17:12.942Z,6.43
2017-12-31T02:19:40.512Z,5.80
2017-12-31T02:22:08.122Z,6.78
2017-12-31T02:24:35.758Z,6.68
2017-12-31T02:27:03.342Z,7.62
2017-12-31T02:29:31.026Z,7.55
2017-12-31T02:31:58.669Z,8.15
2017-12-31T02:34:26.254Z,7.00
2017-12-31T02:36:53.888Z,7.62
2017-12-31T02:39:21.469Z,6.55
2017-12-31T02:41:49.012Z,6.07
2017-12-31T02:44:16.640Z,7.18
2017-12-31T02:46:44.961Z,7.70
2017-12-31T02:49:12.568Z,8.30
2017-12-31T02:51:41.090Z,7.37
2017-12-31T02:54:08.636Z,8.60
2017-12-31T02:56:36.226Z,8.50
2017-12-31T02:59:03.825Z,7.70
2017-12-31T03:01:32.186Z,9.35
2017-12-31T03:03:59.731Z,8.40
2017-12-31T03:06:27.335Z,9.38
2017-12-31T03:08:55.678Z,7.55
2017-12-31T03:11:23.828Z,8.90
2017-12-31T03:13:51.409Z,9.43
2017-12-31T03:16:18.948Z,7.93
2017-12-31T03:18:46.549Z,8.88
2017-12-31T03:21:14.888Z,6.93
2017-12-31T03:23:42.435Z,8.85
2017-12-31T03:26:09.990Z,9.25
2017-12-31T03:28:38.305Z,8.60
2017-12-31T03:31:05.854Z,8.15
2017-12-31T03:33:33.518Z,8.18
2017-12-31T03:36:01.095Z,8.68
2017-12-31T03:38:28.730Z,9.35
2017-12-31T03:40:57.012Z,8.73
2017-12-31T03:43:25.717Z,10.93
2017-12-31T03:45:53.263Z,8.80
2017-12-31T03:48:20.819Z,9.07
2017-12-31T03:50:49.971Z,8.63
2017-12-31T03:53:17.513Z,9.05
2017-12-31T03:55:45.074Z,11.05
2017-12-31T03:58:12.647Z,9.80
2017-12-31T04:00:40.959Z,9.60
2017-12-31T04:03:09.458Z,10.32
2017-12-31T04:05:37.016Z,10.88
2017-12-31T04:08:04.626Z,10.35
2017-12-31T04:10:33.014Z,10.75
2017-12-31T04:13:01.364Z,9.93
2017-12-31T04:15:28.900Z,11.18
2017-12-31T04:17:56.554Z,10.57
2017-12-31T04:20:24.101Z,12.75
2017-12-31T04:22:51.661Z,12.68
2017-12-31T04:25:19.299Z,12.88
2017-12-31T04:27:46.884Z,12.00
2017-12-31T04:30:14.441Z,11.82
2017-12-31T04:32:42.023Z,13.13
2017-12-31T04:35:10.464Z,11.77
2017-12-31T04:37:38.685Z,12.30
2017-12-31T04:40:06.387Z,14.07
2017-12-31T04:42:33.973Z,12.25
2017-12-31T04:45:01.675Z,15.80
2017-12-31T04:47:29.470Z,14.23
2017-12-31T04:49:57.011Z,11.68
2017-12-31T04:52:25.390Z,12.93
2017-12-31T04:54:53.860Z,12.18
2017-12-31T04:57:21.435Z,14.38
2017-12-31T04:59:49.792Z,10.63
2017-12-31T05:02:18.178Z,12.85
2017-12-31T05:04:46.503Z,10.90
2017-12-31T05:07:14.076Z,11.57
2017-12-31T05:09:41.677Z,8.85
2017-12-31T05:12:09.247Z,11.05
2017-12-31T05:14:37.789Z,10.32
2017-12-31T05:17:05.340Z,8.43
2017-12-31T05:19:32.900Z,7.93
2017-12-31T05:22:01.158Z,8.40
2017-12-31T05:24:28.813Z,10.02
2017-12-31T05:26:56.350Z,8.95
2017-12-31T05:29:23.915Z,8.40
2017-12-31T05:31:51.496Z,8.57
2017-12-31T05:34:19.136Z,8.30
2017-12-31T05:36:46.653Z,8.45
2017-12-31T05:39:15.170Z,8.80
2017-12-31T05:41:42.781Z,9.15
2017-12-31T05:44:10.337Z,8.20
2017-12-31T05:46:38.003Z,8.95
2017-12-31T05:49:05.619Z,9.02
2017-12-31T05:51:33.194Z,8.27
2017-12-31T05:54:01.536Z,8.25
2017-12-31T05:56:29.047Z,6.25
2017-12-31T05:58:56.675Z,6.65
2017-12-31T06:01:24.227Z,6.65
2017-12-31T06:03:52.629Z,6.03
2017-12-31T06:06:20.263Z,5.82
2017-12-31T06:08:47.821Z,5.93
2017-12-31T06:11:16.152Z,5.75
2017-12-31T06:13:43.702Z,5.55
2017-12-31T06:16:11.434Z,5.70
2017-12-31T06:18:40.718Z,5.45
2017-12-31T06:21:08.313Z,4.95
2017-12-31T06:23:35.867Z,4.68
2017-12-31T06:26:03.429Z,6.60
2017-12-31T06:28:31.006Z,5.20
2017-12-31T06:30:58.549Z,4.93
2017-12-31T06:33:26.951Z,4.55
2017-12-31T06:35:54.544Z,4.25
2017-12-31T06:38:22.137Z,5.03
2017-12-31T06:40:50.528Z,4.45
2017-12-31T06:43:18.104Z,4.72
2017-12-31T06:45:47.270Z,4.28
2017-12-31T06:48:16.047Z,5.15
2017-12-31T06:50:44.417Z,4.85
2017-12-31T06:53:12.131Z,5.80
2017-12-31T06:55:39.670Z,5.35
2017-12-31T06:58:07.367Z,5.53
2017-12-31T07:00:35.042Z,6.20
2017-12-31T07:03:02.937Z,7.05
2017-12-31T07:05:31.294Z,8.88
2017-12-31T07:07:58.880Z,8.18
2017-12-31T07:10:26.426Z,6.20
2017-12-31T07:12:54.782Z,7.57
2017-12-31T07:15:23.074Z,8.07
2017-12-31T07:17:50.634Z,9.70
2017-12-31T07:20:18.224Z,6.20
2017-12-31T07:22:46.704Z,6.37
2017-12-31T07:25:14.263Z,7.93
2017-12-31T07:27:41.829Z,6.22
2017-12-31T07:30:09.507Z,5.60
2017-12-31T07:32:37.281Z,5.30
2017-12-31T07:35:04.885Z,6.70
2017-12-31T07:37:32.480Z,5.82
2017-12-31T07:40:00.052Z,5.85
2017-12-31T07:42:27.671Z,5.10
2017-12-31T07:44:55.253Z,5.50
2017-12-31T07:47:22.801Z,4.60
2017-12-31T07:49:50.391Z,6.53
2017-12-31T07:52:17.995Z,4.57
2017-12-31T07:54:45.688Z,5.20
2017-12-31T07:57:14.244Z,3.85
2017-12-31T07:59:41.853Z,4.62
2017-12-31T08:02:09.426Z,4.20
2017-12-31T08:04:37.021Z,3.05
2017-12-31T08:07:06.264Z,4.20
2017-12-31T08:09:33.907Z,3.05
2017-12-31T08:12:01.489Z,3.30
2017-12-31T08:14:29.129Z,3.30
2017-12-31T08:16:56.699Z,3.62
2017-12-31T08:19:24.281Z,4.05
2017-12-31T08:21:52.138Z,4.93
2017-12-31T08:24:19.803Z,5.47
2017-12-31T08:26:47.473Z,4.50
2017-12-31T08:29:15.127Z,4.18
2017-12-31T08:31:42.787Z,4.80
2017-12-31T08:34:10.358Z,3.80
2017-12-31T08:36:37.933Z,3.80
2017-12-31T08:39:06.396Z,2.37
2017-12-31T08:41:34.006Z,2.90
2017-12-31T08:44:01.598Z,4.12
2017-12-31T08:46:29.219Z,4.22
2017-12-31T08:48:56.901Z,4.97
2017-12-31T08:51:24.450Z,3.92
2017-12-31T08:53:52.050Z,4.15
2017-12-31T08:56:20.352Z,4.10
2017-12-31T08:58:47.910Z,3.85
2017-12-31T09:01:15.495Z,3.95
2017-12-31T09:03:43.075Z,4.40
2017-12-31T09:06:10.678Z,3.50
2017-12-31T09:08:39.048Z,4.50
2017-12-31T09:11:07.392Z,3.95
2017-12-31T09:13:34.946Z,3.80
2017-12-31T09:16:03.319Z,3.87
2017-12-31T09:18:31.673Z,5.40
2017-12-31T09:20:59.568Z,3.62
2017-12-31T09:23:27.959Z,3.55
2017-12-31T09:25:55.549Z,4.28
2017-12-31T09:28:23.205Z,4.12
2017-12-31T09:30:50.768Z,3.35
2017-12-31T09:33:18.413Z,4.68
2017-12-31T09:35:45.986Z,4.15
2017-12-31T09:38:13.910Z,3.70
2017-12-31T09:40:41.669Z,3.12
2017-12-31T09:43:09.939Z,2.72
2017-12-31T09:45:37.696Z,3.30
2017-12-31T09:48:05.237Z,3.15
2017-12-31T09:50:33.020Z,3.00
2017-12-31T09:53:01.320Z,2.83
2017-12-31T09:55:28.953Z,2.80
2017-12-31T09:57:57.375Z,3.20
2017-12-31T10:00:25.278Z,3.90
2017-12-31T10:02:54.184Z,2.62
2017-12-31T10:05:21.808Z,2.58
2017-12-31T10:07:50.192Z,2.60
2017-12-31T10:10:17.875Z,3.60
2017-12-31T10:12:45.572Z,2.72
2017-12-31T10:15:13.235Z,3.55
2017-12-31T10:17:42.517Z,2.40
2017-12-31T10:20:10.874Z,3.35
2017-12-31T10:22:39.113Z,2.50
2017-12-31T10:25:06.724Z,2.12
2017-12-31T10:27:34.332Z,3.15
2017-12-31T10:30:01.949Z,2.58
2017-12-31T10:32:29.529Z,2.75
2017-12-31T10:34:57.882Z,3.92
2017-12-31T10:37:25.430Z,2.90
2017-12-31T10:39:53.032Z,3.10
2017-12-31T10:42:21.435Z,2.42
2017-12-31T10:44:49.016Z,1.80
2017-12-31T10:47:16.619Z,2.53
2017-12-31T10:49:44.164Z,3.30
2017-12-31T10:52:11.758Z,2.15
2017-12-31T10:54:40.318Z,2.40
2017-12-31T10:57:08.689Z,2.65
2017-12-31T10:59:36.240Z,2.73
2017-12-31T11:02:03.812Z,1.83
2017-12-31T11:04:32.180Z,1.70
2017-12-31T11:06:59.776Z,2.53
2017-12-31T11:09:27.535Z,1.65
2017-12-31T11:11:55.190Z,1.53
2017-12-31T11:14:22.806Z,1.73
2017-12-31T11:16:50.440Z,2.33
2017-12-31T11:19:18.008Z,3.40
2017-12-31T11:21:45.720Z,2.20
2017-12-31T11:24:13.467Z,1.97
2017-12-31T11:26:41.362Z,2.57
2017-12-31T11:29:10.022Z,2.40
2017-12-31T11:31:38.448Z,2.77
2017-12-31T11:34:06.068Z,2.50
2017-12-31T11:36:33.854Z,2.50
2017-12-31T11:39:01.515Z,2.12
2017-12-31T11:41:29.103Z,2.33
2017-12-31T11:43:56.726Z,1.70
2017-12-31T11:46:24.327Z,2.00
2017-12-31T11:48:51.873Z,1.97
2017-12-31T11:51:19.556Z,2.72
2017-12-31T11:53:47.188Z,2.20
2017-12-31T11:56:15.489Z,2.30
2017-12-31T11:58:43.042Z,2.80
2017-12-31T12:01:10.621Z,2.97
2017-12-31T12:03:38.370Z,1.70
2017-12-31T12:06:06.004Z,1.47
2017-12-31T12:08:33.564Z,2.30
2017-12-31T12:11:01.875Z,2.70
2017-12-31T12:13:29.455Z,1.73
2017-12-31T12:15:57.035Z,2.37
2017-12-31T12:18:24.643Z,1.40
2017-12-31T12:20:52.247Z,1.63
2017-12-31T12:23:20.018Z,2.23
2017-12-31T12:25:47.598Z,2.10
2017-12-31T12:28:15.284Z,2.03
2017-12-31T12:30:42.910Z,1.70
2017-12-31T12:33:10.595Z,1.83
2017-12-31T12:35:38.313Z,1.57
2017-12-31T12:38:05.893Z,2.03
2017-12-31T12:40:33.489Z,1.83
2017-12-31T12:43:01.071Z,1.50
2017-12-31T12:45:28.650Z,3.07
2017-12-31T12:47:56.335Z,1.60
2017-12-31T12:50:23.997Z,2.10
2017-12-31T12:52:51.553Z,2.33
2017-12-31T12:55:19.186Z,1.70
2017-12-31T12:57:46.759Z,3.53
2017-12-31T13:00:14.366Z,1.93
2017-12-31T13:02:42.724Z,2.90
2017-12-31T13:05:10.325Z,2.10
2017-12-31T13:07:37.920Z,1.40
2017-12-31T13:10:05.475Z,1.63
2017-12-31T13:12:33.053Z,1.83
2017-12-31T13:15:00.616Z,2.40
2017-12-31T13:17:28.515Z,2.47
2017-12-31T13:19:56.101Z,1.97
2017-12-31T13:22:23.798Z,1.17
2017-12-31T13:24:51.521Z,2.60
2017-12-31T13:27:19.154Z,2.20
2017-12-31T13:29:47.506Z,4.13
2017-12-31T13:32:15.072Z,1.93
2017-12-31T13:34:42.723Z,2.07
2017-12-31T13:37:10.365Z,1.90
2017-12-31T13:39:37.994Z,2.17
2017-12-31T13:42:06.344Z,2.60
2017-12-31T13:44:33.915Z,1.83
2017-12-31T13:47:01.498Z,2.00
2017-12-31T13:49:29.070Z,1.43
2017-12-31T13:51:56.644Z,1.57
2017-12-31T13:54:24.260Z,1.90
2017-12-31T13:56:52.583Z,1.40
2017-12-31T13:59:20.174Z,1.80
2017-12-31T14:01:47.828Z,1.57
2017-12-31T14:04:15.623Z,1.47
2017-12-31T14:06:43.207Z,1.90
2017-12-31T14:09:10.801Z,1.30
2017-12-31T14:11:38.736Z,0.70
2017-12-31T14:14:06.337Z,1.27
2017-12-31T14:16:34.753Z,1.67
2017-12-31T14:19:03.122Z,1.53
2017-12-31T14:21:30.704Z,1.30
2017-12-31T14:23:58.380Z,1.10
2017-12-31T14:26:25.957Z,2.50
2017-12-31T14:28:53.591Z,1.30
2017-12-31T14:31:21.154Z,1.10
2017-12-31T14:33:48.688Z,1.27
2017-12-31T14:36:16.873Z,3.30
2017-12-31T14:38:45.285Z,1.27
2017-12-31T14:41:12.856Z,1.43
2017-12-31T14:43:40.473Z,2.53
2017-12-31T14:46:08.070Z,1.17
2017-12-31T14:48:35.687Z,1.30
2017-12-31T14:51:04.094Z,3.90
2017-12-31T14:53:31.737Z,1.17
2017-12-31T14:55:59.400Z,1.33
2017-12-31T14:58:27.257Z,2.70
2017-12-31T15:00:55.180Z,1.90
2017-12-31T15:03:22.798Z,1.97
2017-12-31T15:05:50.783Z,1.40
2017-12-31T15:08:18.387Z,1.30
2017-12-31T15:10:53.960Z,1.60
2017-12-31T15:13:21.574Z,1.40
2017-12-31T15:15:49.164Z,1.20
2017-12-31T15:18:16.860Z,1.03
2017-12-31T15:20:44.567Z,1.23
2017-12-31T15:23:12.109Z,1.33
2017-12-31T15:25:39.786Z,1.13
2017-12-31T15:28:08.397Z,1.50
2017-12-31T15:30:35.976Z,2.10
2017-12-31T15:33:03.632Z,1.60
2017-12-31T15:35:31.212Z,1.90
2017-12-31T15:37:58.792Z,1.73
2017-12-31T15:40:26.363Z,1.70
2017-12-31T15:42:55.402Z,1.37
2017-12-31T15:45:23.745Z,1.57
2017-12-31T15:47:51.346Z,1.20
2017-12-31T15:50:19.443Z,1.73
2017-12-31T15:52:47.032Z,1.30
2017-12-31T15:55:15.401Z,1.27
2017-12-31T15:57:44.020Z,2.53
2017-12-31T16:00:11.615Z,0.80
2017-12-31T16:02:39.971Z,1.30
2017-12-31T16:05:07.663Z,2.42
2017-12-31T16:07:36.003Z,1.60
2017-12-31T16:10:03.652Z,2.28
2017-12-31T16:12:31.231Z,3.30
2017-12-31T16:14:59.592Z,2.30
2017-12-31T16:17:27.172Z,1.83
2017-12-31T16:19:54.865Z,2.00
2017-12-31T16:22:23.285Z,1.95
2017-12-31T16:24:51.086Z,2.62
2017-12-31T16:27:18.671Z,2.35
2017-12-31T16:29:46.353Z,2.20
2017-12-31T16:32:13.952Z,2.10
2017-12-31T16:34:41.597Z,2.50
2017-12-31T16:37:09.158Z,2.62
2017-12-31T16:39:36.813Z,2.70
2017-12-31T16:42:04.427Z,3.55
2017-12-31T16:44:32.047Z,6.22
2017-12-31T16:46:59.652Z,5.37
2017-12-31T16:49:27.260Z,5.32
2017-12-31T16:51:54.943Z,4.85
2017-12-31T16:54:24.265Z,5.70
2017-12-31T16:56:52.069Z,4.55
2017-12-31T16:59:19.657Z,4.15
2017-12-31T17:01:47.288Z,5.55
2017-12-31T17:04:14.986Z,5.43
2017-12-31T17:06:42.535Z,6.53
2017-12-31T17:09:10.325Z,6.30
2017-12-31T17:11:37.910Z,6.37
2017-12-31T17:14:05.492Z,5.43
2017-12-31T17:16:33.115Z,7.68
2017-12-31T17:19:00.852Z,5.60
2017-12-31T17:21:29.331Z,6.28
2017-12-31T17:23:56.990Z,6.28
2017-12-31T17:26:24.613Z,5.82
2017-12-31T17:28:52.666Z,7.70
2017-12-31T17:31:20.341Z,5.30
2017-12-31T17:33:47.978Z,5.90
2017-12-31T17:36:15.580Z,4.50
2017-12-31T17:38:43.147Z,4.20
2017-12-31T17:41:10.777Z,3.97
2017-12-31T17:43:38.505Z,4.78
2017-12-31T17:46:06.064Z,3.20
2017-12-31T17:48:33.674Z,2.42
2017-12-31T17:51:02.065Z,2.12
2017-12-31T17:53:29.627Z,2.00
2017-12-31T17:55:58.208Z,1.17
2017-12-31T17:58:26.532Z,2.67
2017-12-31T18:00:54.950Z,1.80
2017-12-31T18:03:22.521Z,1.80
2017-12-31T18:05:50.066Z,1.83
2017-12-31T18:08:17.790Z,2.28
2017-12-31T18:10:45.365Z,1.80
2017-12-31T18:13:13.002Z,2.03
2017-12-31T18:15:41.788Z,1.62
2017-12-31T18:18:09.456Z,1.12
2017-12-31T18:20:37.254Z,1.77
2017-12-31T18:23:04.834Z,1.60
2017-12-31T18:25:32.537Z,2.53
2017-12-31T18:28:01.291Z,1.85
2017-12-31T18:30:29.669Z,2.00
2017-12-31T18:32:58.421Z,2.05
2017-12-31T18:38:17.452Z,2.12
2017-12-31T18:40:45.826Z,2.40
2017-12-31T18:43:14.743Z,2.62
2017-12-31T18:45:42.349Z,2.90
2017-12-31T18:48:09.978Z,2.50
2017-12-31T18:50:37.522Z,2.35
2017-12-31T18:53:05.304Z,1.90
2017-12-31T18:55:33.024Z,1.65
2017-12-31T18:58:00.610Z,2.20
2017-12-31T19:00:28.172Z,1.75
2017-12-31T19:02:55.769Z,1.77
2017-12-31T19:05:23.403Z,1.55
2017-12-31T19:07:51.096Z,2.50
2017-12-31T19:10:18.651Z,1.95
2017-12-31T19:12:46.245Z,2.03
2017-12-31T19:15:13.907Z,2.40
2017-12-31T19:17:41.491Z,2.60
2017-12-31T19:20:09.122Z,3.60
2017-12-31T19:22:36.806Z,2.87
2017-12-31T19:25:05.189Z,3.10
2017-12-31T19:27:32.964Z,2.78
2017-12-31T19:30:00.712Z,2.78
2017-12-31T19:32:29.045Z,2.92
2017-12-31T19:34:58.246Z,44.88
2017-12-31T19:37:25.898Z,3.35
2017-12-31T19:39:53.508Z,8.73
2017-12-31T19:42:21.905Z,72.57
2017-12-31T19:44:49.475Z,12.75
2017-12-31T19:47:17.057Z,11.32
2017-12-31T19:49:45.251Z,6.28
2017-12-31T19:52:12.834Z,5.65
2017-12-31T19:54:40.441Z,5.80
2017-12-31T19:57:07.976Z,4.03
2017-12-31T19:59:35.592Z,2.67
2017-12-31T20:02:03.244Z,1.40
2017-12-31T20:04:30.929Z,5.28
2017-12-31T20:06:58.712Z,2.40
2017-12-31T20:09:26.290Z,2.10
2017-12-31T20:11:54.835Z,1.50
2017-12-31T20:14:22.402Z,3.15
2017-12-31T20:16:50.796Z,3.20
2017-12-31T20:19:19.596Z,3.08
2017-12-31T20:21:47.159Z,3.83
2017-12-31T20:24:15.530Z,4.07
2017-12-31T20:26:43.905Z,3.92
2017-12-31T20:29:12.249Z,2.33
2017-12-31T20:31:40.680Z,2.97
2017-12-31T20:34:08.286Z,3.75
2017-12-31T20:36:35.921Z,3.30
2017-12-31T20:39:03.622Z,3.90
2017-12-31T20:41:31.179Z,3.15
2017-12-31T20:43:59.584Z,2.92
2017-12-31T20:46:27.966Z,2.75
2017-12-31T20:48:55.519Z,3.75
2017-12-31T20:51:24.641Z,3.70
2017-12-31T20:53:52.346Z,3.17
2017-12-31T20:56:19.924Z,3.58
2017-12-31T20:58:47.531Z,2.83
2017-12-31T21:01:16.106Z,3.70
2017-12-31T21:03:43.728Z,4.32
2017-12-31T21:06:12.054Z,6.55
2017-12-31T21:08:39.616Z,5.97
2017-12-31T21:11:07.385Z,8.95
2017-12-31T21:13:35.050Z,5.62
2017-12-31T21:16:02.783Z,6.00
2017-12-31T21:18:31.097Z,4.87
2017-12-31T21:20:58.730Z,5.82
2017-12-31T21:23:26.335Z,4.50
2017-12-31T21:25:53.917Z,3.30
2017-12-31T21:28:21.520Z,4.12
2017-12-31T21:30:49.165Z,5.65
2017-12-31T21:36:08.112Z,5.95
2017-12-31T21:38:35.645Z,4.85
2017-12-31T21:41:03.254Z,4.70
2017-12-31T21:43:30.810Z,4.50
2017-12-31T21:45:58.376Z,5.25
2017-12-31T21:48:26.807Z,4.95
2017-12-31T21:50:54.412Z,5.22
2017-12-31T21:53:22.934Z,4.45
2017-12-31T21:55:50.541Z,5.50
2017-12-31T21:58:18.169Z,4.45
2017-12-31T22:00:45.789Z,4.82
2017-12-31T22:03:13.389Z,4.50
2017-12-31T22:05:40.944Z,3.35
2017-12-31T22:08:08.505Z,5.47
2017-12-31T22:10:36.076Z,4.00
2017-12-31T22:13:03.655Z,3.17
2017-12-31T22:15:31.492Z,5.72
2017-12-31T22:17:59.054Z,4.25
2017-12-31T22:20:26.643Z,5.30
2017-12-31T22:22:54.228Z,4.50
2017-12-31T22:25:21.857Z,3.65
2017-12-31T22:27:50.204Z,3.40
2017-12-31T22:30:17.854Z,3.70
2017-12-31T22:32:45.429Z,4.97
2017-12-31T22:35:13.022Z,4.70
2017-12-31T22:37:40.584Z,3.62
2017-12-31T22:40:08.190Z,3.85
2017-12-31T22:42:35.752Z,2.87
2017-12-31T22:45:03.418Z,2.72
2017-12-31T22:47:31.068Z,3.80
2017-12-31T22:49:58.813Z,3.12
2017-12-31T22:52:26.484Z,5.78
2017-12-31T22:54:54.064Z,6.93
2017-12-31T22:57:21.644Z,5.60
2017-12-31T22:59:49.215Z,20.45
2017-12-31T23:02:16.744Z,22.17
2017-12-31T23:04:44.420Z,217.43
2017-12-31T23:07:12.012Z,249.88
2017-12-31T23:09:39.661Z,246.48
2017-12-31T23:12:07.305Z,122.35
2017-12-31T23:14:34.928Z,201.98
2017-12-31T23:17:03.205Z,112.43
2017-12-31T23:19:31.623Z,105.97
2017-12-31T23:21:59.210Z,63.75
2017-12-31T23:24:26.766Z,109.57
2017-12-31T23:26:54.443Z,49.10
2017-12-31T23:29:21.989Z,27.40
2017-12-31T23:31:49.590Z,28.35
2017-12-31T23:34:17.916Z,38.28
2017-12-31T23:36:45.513Z,20.17
2017-12-31T23:39:13.141Z,17.27
2017-12-31T23:41:40.710Z,18.08
2017-12-31T23:44:08.333Z,19.33
2017-12-31T23:46:36.040Z,14.10
2017-12-31T23:49:03.652Z,11.98
2017-12-31T23:54:05.972Z,11.90
2017-12-31T23:56:33.543Z,7.22
2017-12-31T23:59:01.160Z,8.23
